Malov, Denmark
Current Conditions -  °F | °C
As of 7:20 PM on Sunday 25 Jan 2015 (Local Time) from EKRK Reporting Station
Moderate Fog Moderate Fog  
Wind Chill: 27°   Ceiling: 100
Heat Index: 27°   Visibility: 0.03mi
Dew Point: 27°   Wind: 2mph
Humidity: 100%   Direction: 240°WSW
Pressure: 30.21"   Gusts: NA
Location:  55.76°N, 12.32°E
Report Text: EKRK 251820Z AUTO 24002KT 0050NDV R11/0400N R29/0400NFZFG VV001 M03/M03 Q1023 R99/790330 R99/790330
Loading
Personal Weather Stations






























Interactive Weather Map New forecast layout! Learn more

10-Day Weather Forecast

Advertisements
Track Severe Weather on mobile